< < Back
Terminal Aerodrome Forecast


Current Version              Previous Versions:   1  2  3  4  5  6  7  8  9  

Terminal Aerodrome Forecast

340
FTUS42 KCHS 250523
TAFSAV
TAF
KSAV 250523Z 2506/2606 VRB04KT P6SM FEW025
     FM251500 06011G16KT P6SM SCT050 BKN250
     FM260000 10003KT P6SM SKC=



Latest METAR

429
SAUS80 KWBC 252300 RRA
MTRSAV
METAR KSAV 252253Z 10012KT 10SM FEW060 31/20 A3006 RMK AO2 SLP179
T03060200


USA.gov is the U.S. government's official web portal to all federal, state and local government web resources and services.